Argyle's Hourly Summary for Wednesday, July 11, 2018
Hour Temp
(f)
RH
(%)
Solar Rad.
(MJ/m2)
Rainfall
(in)
Wind
(mph)
7/11/2018 12:00 AM 79 77 0 0 1.6
7/11/2018 1:00 AM 79 77 0 0 0.58
7/11/2018 2:00 AM 78 80 0 0 0.44
7/11/2018 3:00 AM 76 82 0 0 0.22
7/11/2018 4:00 AM 76 84 0 0 0.17
7/11/2018 5:00 AM 75 83 0 0 0.51
7/11/2018 6:00 AM 75 85 0 0 0.52
7/11/2018 7:00 AM 76 82 0.01 0 0.38
7/11/2018 8:00 AM 77 80 0.17 0 1.99
7/11/2018 9:00 AM 79 75 0.65 0 4.04
7/11/2018 10:00 AM 83 54 1.66 0 3.08
7/11/2018 11:00 AM 91 42 2.44 0 3.89
7/11/2018 12:00 PM 92 42 2.26 0 3.64
7/11/2018 1:00 PM 94 39 2.98 0 4.84
7/11/2018 2:00 PM 97 31 3.38 0 3.82
7/11/2018 3:00 PM 97 30 2.62 0 4.86
7/11/2018 4:00 PM 98 26 1.87 0 4.69
7/11/2018 5:00 PM 94 32 0.82 0 4.45
7/11/2018 6:00 PM 95 35 1.91 0 7.93
7/11/2018 7:00 PM 95 36 1.2 0 7.36
7/11/2018 8:00 PM 93 40 0.33 0 4.85
7/11/2018 9:00 PM 92 41 0.09 0 2.81
7/11/2018 10:00 PM 90 47 0 0 3.3
7/11/2018 11:00 PM 88 51 0 0 3.52
Data Summary 86 56 22.39 0.00 3.06